Time;durP1;ratioP1;P1;durP2;ratioP2;P2;SDS_P1;SDS_P2;PMS_P1;PMS_P2;Temp;Humidity;BMP_temperature;BMP_pressure;BME280_temperature;BME280_humidity;BME280_pressure;Samples;Min_cycle;Max_cycle;Signal;HPM_P1;HPM_P2
2021/05/16 00:00:11;;;;;;;1.02;0.50;;;22.20;50.60;;;;;;5030511;28;20140;-41
2021/05/16 00:02:37;;;;;;;1.63;0.50;;;22.20;50.50;;;;;;5027995;28;20037;-51
2021/05/16 00:05:04;;;;;;;0.80;0.50;;;22.20;50.50;;;;;;5032070;28;20398;-40
2021/05/16 00:07:30;;;;;;;1.65;0.45;;;22.20;50.50;;;;;;5030986;28;20026;-39
2021/05/16 00:09:55;;;;;;;1.08;0.40;;;22.20;50.40;;;;;;5031016;28;20167;-40
2021/05/16 00:12:21;;;;;;;1.65;0.85;;;22.20;50.40;;;;;;5031960;28;20052;-40
2021/05/16 00:14:48;;;;;;;1.58;0.40;;;22.20;50.40;;;;;;5031133;28;20040;-40
2021/05/16 00:17:14;;;;;;;2.20;0.50;;;22.20;50.30;;;;;;5032210;28;20022;-40
2021/05/16 00:19:40;;;;;;;0.90;0.50;;;22.20;50.30;;;;;;5030938;28;20159;-51
2021/05/16 00:22:06;;;;;;;1.13;0.60;;;22.10;50.30;;;;;;5031679;28;20029;-39
2021/05/16 00:24:31;;;;;;;0.60;0.40;;;22.20;50.30;;;;;;5024138;28;20025;-40
2021/05/16 00:26:57;;;;;;;0.50;0.38;;;22.20;50.30;;;;;;5030520;28;20112;-39
2021/05/16 00:29:23;;;;;;;1.17;0.60;;;22.20;50.30;;;;;;5031719;28;20044;-41
2021/05/16 00:31:49;;;;;;;2.40;0.52;;;22.10;50.20;;;;;;5029487;28;20041;-40
2021/05/16 00:34:14;;;;;;;1.83;0.60;;;22.20;50.20;;;;;;5031525;28;20029;-39
2021/05/16 00:36:40;;;;;;;0.77;0.32;;;22.10;50.10;;;;;;5031443;28;20033;-51
2021/05/16 00:39:06;;;;;;;1.35;0.40;;;22.10;50.20;;;;;;5031407;28;20425;-40
2021/05/16 00:41:32;;;;;;;1.27;0.50;;;22.10;50.20;;;;;;5030619;28;20059;-39
2021/05/16 00:43:57;;;;;;;1.58;0.52;;;22.10;50.10;;;;;;5029404;28;20075;-39
2021/05/16 00:46:24;;;;;;;1.20;0.30;;;22.10;50.10;;;;;;5031623;28;20033;-40
2021/05/16 00:48:50;;;;;;;0.43;0.30;;;22.10;50.00;;;;;;5029813;28;20390;-41
2021/05/16 00:51:16;;;;;;;1.98;0.40;;;22.10;50.10;;;;;;5029907;28;20033;-40
2021/05/16 00:53:42;;;;;;;1.27;0.40;;;22.10;50.10;;;;;;5030608;28;20034;-46
2021/05/16 00:56:08;;;;;;;0.70;0.40;;;22.10;50.00;;;;;;5027993;28;20084;-45
2021/05/16 00:58:34;;;;;;;0.55;0.52;;;22.10;50.00;;;;;;5031055;28;20057;-40
2021/05/16 01:01:03;;;;;;;2.35;0.50;;;22.10;50.00;;;;;;5030210;28;20109;-40
2021/05/16 01:03:31;;;;;;;0.90;0.60;;;22.10;50.00;;;;;;5045886;28;20030;-37
2021/05/16 01:05:57;;;;;;;1.08;0.63;;;22.10;50.00;;;;;;5030600;28;20112;-43
2021/05/16 01:08:23;;;;;;;0.95;0.45;;;22.10;50.00;;;;;;5028408;28;20101;-42
2021/05/16 01:10:49;;;;;;;0.98;0.30;;;22.10;50.00;;;;;;5030909;28;20067;-38
2021/05/16 01:13:15;;;;;;;1.52;0.75;;;22.10;50.00;;;;;;5033118;28;20036;-37
2021/05/16 01:15:43;;;;;;;1.77;0.40;;;22.10;50.10;;;;;;5036890;28;20029;-51
2021/05/16 01:18:09;;;;;;;1.45;0.50;;;22.10;50.00;;;;;;5036971;28;20478;-40
2021/05/16 01:20:41;;;;;;;1.95;0.50;;;22.10;50.00;;;;;;5037523;28;20037;-40
2021/05/16 01:23:09;;;;;;;1.23;0.30;;;22.10;49.90;;;;;;5037718;28;20021;-41
2021/05/16 01:25:41;;;;;;;1.17;0.57;;;22.10;49.80;;;;;;5037360;28;20022;-40
2021/05/16 01:28:08;;;;;;;1.02;0.45;;;22.00;49.80;;;;;;5036676;28;20068;-40
2021/05/16 01:30:34;;;;;;;0.95;0.38;;;22.00;49.90;;;;;;5037090;28;20510;-40
2021/05/16 01:33:03;;;;;;;1.25;0.38;;;22.00;49.80;;;;;;5037005;28;20025;-40
2021/05/16 01:35:29;;;;;;;0.98;0.40;;;22.00;49.80;;;;;;5037383;28;20025;-43
2021/05/16 01:37:55;;;;;;;0.80;0.50;;;22.00;49.80;;;;;;5036411;28;20372;-40
2021/05/16 01:40:21;;;;;;;1.55;0.47;;;22.00;49.80;;;;;;5036229;28;20037;-40
2021/05/16 01:42:50;;;;;;;0.63;0.30;;;22.10;49.80;;;;;;5035975;28;20034;-40
2021/05/16 01:45:19;;;;;;;0.68;0.40;;;22.00;49.80;;;;;;5036664;28;20045;-39
2021/05/16 01:47:45;;;;;;;1.30;0.50;;;22.00;49.70;;;;;;5035251;28;20486;-41
2021/05/16 01:50:19;;;;;;;0.82;0.35;;;22.00;49.70;;;;;;5031863;28;20050;-42
2021/05/16 01:52:47;;;;;;;2.05;0.65;;;22.00;50.30;;;;;;5034611;28;20068;-45
2021/05/16 01:55:15;;;;;;;0.73;0.50;;;22.00;49.70;;;;;;5036037;28;20056;-39
2021/05/16 01:57:41;;;;;;;1.60;0.47;;;22.00;49.70;;;;;;5035542;28;20482;-50
2021/05/16 02:00:10;;;;;;;1.30;0.47;;;22.00;49.70;;;;;;5035492;28;20519;-41
2021/05/16 02:02:37;;;;;;;0.57;0.52;;;22.00;49.70;;;;;;5035032;28;20037;-39
2021/05/16 02:05:03;;;;;;;1.42;0.70;;;22.00;49.70;;;;;;5035234;28;20064;-41
2021/05/16 02:07:30;;;;;;;0.98;0.50;;;22.00;49.70;;;;;;5035862;28;20071;-40
2021/05/16 02:09:57;;;;;;;1.08;0.50;;;22.00;49.70;;;;;;5035501;28;20072;-41
2021/05/16 02:12:23;;;;;;;1.20;0.55;;;22.00;49.70;;;;;;5037885;28;20100;-41
2021/05/16 02:14:48;;;;;;;1.10;0.70;;;22.00;49.70;;;;;;5033187;28;20117;-41
2021/05/16 02:17:15;;;;;;;0.60;0.30;;;22.00;49.70;;;;;;5035262;28;20033;-40
2021/05/16 02:19:42;;;;;;;0.88;0.43;;;22.00;49.70;;;;;;5035690;28;20029;-50
2021/05/16 02:22:08;;;;;;;1.25;0.40;;;22.00;49.70;;;;;;5035892;28;20021;-42
2021/05/16 02:24:36;;;;;;;0.52;0.40;;;22.00;49.60;;;;;;5031253;28;20022;-41
2021/05/16 02:27:02;;;;;;;1.00;0.50;;;22.00;49.60;;;;;;5031327;28;20114;-41
2021/05/16 02:29:29;;;;;;;1.45;0.68;;;21.90;49.60;;;;;;5031461;28;20061;-46
2021/05/16 02:31:55;;;;;;;0.40;0.38;;;22.00;49.70;;;;;;5031597;28;20092;-40
2021/05/16 02:34:22;;;;;;;3.03;0.70;;;22.00;49.60;;;;;;5032923;28;20029;-38
2021/05/16 02:36:48;;;;;;;1.83;0.57;;;21.90;49.50;;;;;;5031429;28;20032;-39
2021/05/16 02:39:14;;;;;;;1.27;0.40;;;22.00;49.60;;;;;;5032449;28;20390;-41
2021/05/16 02:41:40;;;;;;;1.45;0.55;;;21.90;49.50;;;;;;5032078;28;20387;-50
2021/05/16 02:44:06;;;;;;;0.95;0.60;;;21.90;49.60;;;;;;5028743;28;20033;-41
2021/05/16 02:46:32;;;;;;;1.00;0.65;;;22.00;49.60;;;;;;5031376;28;20417;-39
2021/05/16 02:48:57;;;;;;;1.92;0.40;;;21.90;49.50;;;;;;5031887;28;20033;-41
2021/05/16 02:51:23;;;;;;;1.35;0.47;;;21.90;49.50;;;;;;5032350;28;20017;-44
2021/05/16 02:53:48;;;;;;;1.55;0.60;;;21.90;49.50;;;;;;5029989;28;20052;-39
2021/05/16 02:56:18;;;;;;;2.08;0.45;;;21.90;49.50;;;;;;5028232;28;20021;-38
2021/05/16 02:58:44;;;;;;;0.63;0.40;;;21.90;49.60;;;;;;5030837;28;20076;-47
2021/05/16 03:01:11;;;;;;;1.15;0.40;;;21.90;49.50;;;;;;5030869;28;20033;-39
2021/05/16 03:03:41;;;;;;;1.23;0.30;;;21.90;49.50;;;;;;5032268;28;20021;-38
2021/05/16 03:06:07;;;;;;;0.68;0.40;;;22.00;49.50;;;;;;5032651;28;20021;-37
2021/05/16 03:08:33;;;;;;;0.98;0.40;;;22.00;49.60;;;;;;5032198;28;20025;-39
2021/05/16 03:10:59;;;;;;;0.80;0.60;;;21.90;49.60;;;;;;5031502;28;20128;-38
2021/05/16 03:13:25;;;;;;;2.13;0.45;;;21.90;49.50;;;;;;5033380;28;20060;-41
2021/05/16 03:15:50;;;;;;;1.20;0.50;;;21.90;49.50;;;;;;5031388;28;20034;-38
2021/05/16 03:18:16;;;;;;;0.82;0.52;;;21.90;49.50;;;;;;5033230;28;20021;-39
2021/05/16 03:20:42;;;;;;;0.32;0.30;;;21.90;49.50;;;;;;5030852;28;20037;-49
2021/05/16 03:23:08;;;;;;;1.00;0.45;;;21.90;49.50;;;;;;5031583;28;20018;-39
2021/05/16 03:25:35;;;;;;;0.60;0.40;;;21.90;49.50;;;;;;5032763;28;20113;-41
2021/05/16 03:28:01;;;;;;;0.38;0.30;;;21.90;49.60;;;;;;5031437;28;20034;-40
2021/05/16 03:30:27;;;;;;;0.45;0.28;;;21.90;49.60;;;;;;5033011;28;20385;-39
2021/05/16 03:32:53;;;;;;;0.68;0.40;;;21.90;49.60;;;;;;5030220;28;20017;-39
2021/05/16 03:35:18;;;;;;;1.05;0.45;;;21.90;49.60;;;;;;5031713;28;20057;-38
2021/05/16 03:37:44;;;;;;;0.45;0.20;;;21.90;49.50;;;;;;5031908;28;20022;-49
2021/05/16 03:40:10;;;;;;;0.77;0.40;;;21.90;49.70;;;;;;5028480;28;20052;-38
2021/05/16 03:42:36;;;;;;;1.70;0.57;;;21.90;49.50;;;;;;5032782;28;20057;-39
2021/05/16 03:45:04;;;;;;;1.35;0.50;;;21.90;49.50;;;;;;5031788;28;20204;-40
2021/05/16 03:47:30;;;;;;;1.33;0.43;;;21.90;49.50;;;;;;5031952;28;20036;-39
2021/05/16 03:49:56;;;;;;;0.50;0.35;;;21.90;49.50;;;;;;5031782;28;20535;-37
2021/05/16 03:52:22;;;;;;;0.90;0.65;;;21.90;49.50;;;;;;5032856;28;20037;-39
2021/05/16 03:54:48;;;;;;;0.57;0.38;;;21.90;49.60;;;;;;5031918;28;20022;-37
2021/05/16 03:57:15;;;;;;;0.85;0.40;;;21.90;49.50;;;;;;5032183;28;20033;-39
2021/05/16 03:59:42;;;;;;;1.95;0.40;;;21.90;49.60;;;;;;5032431;28;20395;-40
2021/05/16 04:02:07;;;;;;;2.45;0.50;;;21.90;49.60;;;;;;5031634;28;20034;-38
2021/05/16 04:04:33;;;;;;;1.70;0.40;;;21.90;49.50;;;;;;5032417;28;20028;-39
2021/05/16 04:06:59;;;;;;;1.80;0.50;;;21.90;49.50;;;;;;5031109;28;20029;-39
2021/05/16 04:09:25;;;;;;;0.88;0.55;;;21.90;49.50;;;;;;5031167;28;20029;-38
2021/05/16 04:11:50;;;;;;;0.65;0.40;;;21.90;49.60;;;;;;5031587;28;20458;-41
2021/05/16 04:14:17;;;;;;;1.00;0.40;;;21.90;49.50;;;;;;5032658;28;20056;-38
2021/05/16 04:16:43;;;;;;;0.50;0.32;;;21.90;49.60;;;;;;5030298;28;20043;-50
2021/05/16 04:19:08;;;;;;;0.60;0.30;;;21.90;49.60;;;;;;5031187;28;20041;-42
2021/05/16 04:21:34;;;;;;;0.60;0.47;;;21.90;49.50;;;;;;5030720;28;20398;-39
2021/05/16 04:24:00;;;;;;;1.27;0.40;;;21.90;49.50;;;;;;5031058;28;20053;-37
2021/05/16 04:26:25;;;;;;;2.38;0.50;;;21.90;49.50;;;;;;5031862;28;20040;-37
2021/05/16 04:28:51;;;;;;;1.65;0.40;;;21.90;49.50;;;;;;5030014;28;20049;-39
2021/05/16 04:31:17;;;;;;;0.93;0.40;;;21.90;49.50;;;;;;5031699;28;20364;-42
2021/05/16 04:33:42;;;;;;;0.80;0.50;;;21.90;49.50;;;;;;5027656;28;20040;-39
2021/05/16 04:36:08;;;;;;;1.25;0.50;;;21.90;49.50;;;;;;5030946;28;20128;-39
2021/05/16 04:38:34;;;;;;;0.50;0.30;;;21.90;49.50;;;;;;5030252;28;20175;-38
2021/05/16 04:40:59;;;;;;;0.95;0.35;;;21.90;49.50;;;;;;5029550;28;20029;-37
2021/05/16 04:43:25;;;;;;;0.30;0.30;;;21.90;49.50;;;;;;5031329;28;20037;-38
2021/05/16 04:45:51;;;;;;;1.75;0.43;;;21.90;49.50;;;;;;5029312;28;20112;-38
2021/05/16 04:48:17;;;;;;;0.90;0.40;;;21.90;49.40;;;;;;5030904;28;20079;-38
2021/05/16 04:50:42;;;;;;;0.90;0.30;;;21.90;49.50;;;;;;5031514;28;20033;-38
2021/05/16 04:53:08;;;;;;;1.50;0.90;;;21.90;49.60;;;;;;5030761;28;20104;-41
2021/05/16 04:55:34;;;;;;;0.60;0.38;;;21.90;49.50;;;;;;5032019;28;20381;-37
2021/05/16 04:57:59;;;;;;;0.40;0.30;;;21.90;49.40;;;;;;5028740;28;20029;-40
2021/05/16 05:00:25;;;;;;;1.20;0.40;;;21.90;49.50;;;;;;5031711;28;20038;-39
2021/05/16 05:02:51;;;;;;;1.00;0.30;;;21.90;49.50;;;;;;5029317;28;20040;-39
2021/05/16 05:05:17;;;;;;;1.50;0.50;;;21.90;49.40;;;;;;5031015;28;20036;-38
2021/05/16 05:07:43;;;;;;;1.85;0.68;;;21.90;49.40;;;;;;5030008;28;20037;-39
2021/05/16 05:10:09;;;;;;;0.85;0.40;;;21.90;49.40;;;;;;5030794;28;20525;-39
2021/05/16 05:12:38;;;;;;;0.50;0.30;;;21.90;49.50;;;;;;5031370;28;20079;-39
2021/05/16 05:15:05;;;;;;;0.30;0.30;;;21.90;50.00;;;;;;5030825;28;20026;-39
2021/05/16 05:17:31;;;;;;;1.08;0.47;;;21.90;49.40;;;;;;5031114;28;20029;-47
2021/05/16 05:19:56;;;;;;;0.77;0.63;;;21.90;49.30;;;;;;5012421;28;20463;-37
2021/05/16 05:22:22;;;;;;;0.68;0.30;;;21.90;49.40;;;;;;5030071;28;20068;-39
2021/05/16 05:24:47;;;;;;;2.08;0.40;;;21.90;49.40;;;;;;5030308;28;20029;-49
2021/05/16 05:27:13;;;;;;;0.60;0.25;;;21.90;49.40;;;;;;5026769;28;20033;-40
2021/05/16 05:29:39;;;;;;;0.68;0.30;;;21.90;49.40;;;;;;5032178;28;20542;-40
2021/05/16 05:32:05;;;;;;;0.30;0.20;;;21.90;49.40;;;;;;5040786;28;20029;-39
2021/05/16 05:34:31;;;;;;;3.33;0.77;;;21.90;49.40;;;;;;5030781;28;20036;-39
2021/05/16 05:36:56;;;;;;;0.45;0.30;;;21.90;49.40;;;;;;5030012;28;20025;-41
2021/05/16 05:39:22;;;;;;;1.55;0.30;;;21.90;49.40;;;;;;5029674;28;20041;-39
2021/05/16 05:41:48;;;;;;;1.48;0.47;;;21.90;49.50;;;;;;5030464;28;20394;-49
2021/05/16 05:44:14;;;;;;;1.02;0.40;;;21.90;49.50;;;;;;5029837;28;20029;-38
2021/05/16 05:46:40;;;;;;;0.73;0.65;;;21.90;49.40;;;;;;5031331;28;20040;-41
2021/05/16 05:49:06;;;;;;;0.40;0.30;;;21.90;49.40;;;;;;5029928;28;20170;-37
2021/05/16 05:51:32;;;;;;;0.70;0.68;;;21.80;49.60;;;;;;5031228;28;20528;-37
2021/05/16 05:53:57;;;;;;;0.40;0.35;;;21.90;49.40;;;;;;5028639;28;20502;-38
2021/05/16 05:56:24;;;;;;;0.73;0.40;;;21.80;49.40;;;;;;5031007;28;20041;-39
2021/05/16 05:58:49;;;;;;;1.70;0.30;;;21.90;49.50;;;;;;5029129;28;20065;-49
2021/05/16 06:01:15;;;;;;;2.80;0.40;;;21.90;49.50;;;;;;5034097;28;20108;-39
2021/05/16 06:03:41;;;;;;;0.50;0.22;;;21.80;49.40;;;;;;5034699;28;20032;-39
2021/05/16 06:06:07;;;;;;;0.98;0.45;;;21.80;49.40;;;;;;5031927;28;20091;-39
2021/05/16 06:08:32;;;;;;;0.57;0.20;;;21.80;49.50;;;;;;5034437;28;20029;-38
2021/05/16 06:10:58;;;;;;;0.88;0.30;;;21.80;49.50;;;;;;5033780;28;20057;-39
2021/05/16 06:13:24;;;;;;;2.25;0.40;;;21.80;49.40;;;;;;5034534;28;20036;-38
2021/05/16 06:15:49;;;;;;;0.63;0.40;;;21.80;49.40;;;;;;5034095;28;20030;-49
2021/05/16 06:18:15;;;;;;;3.00;0.50;;;21.80;49.50;;;;;;5034306;28;20034;-40
2021/05/16 06:20:41;;;;;;;3.50;0.40;;;21.90;49.50;;;;;;5031690;28;20720;-41
2021/05/16 06:23:10;;;;;;;0.70;0.38;;;21.80;49.40;;;;;;5033143;28;20119;-38
2021/05/16 06:25:37;;;;;;;1.95;0.35;;;21.80;49.40;;;;;;5032668;28;20022;-40
2021/05/16 06:28:03;;;;;;;0.20;0.20;;;21.80;49.40;;;;;;5032005;28;20040;-39
2021/05/16 06:30:28;;;;;;;0.50;0.30;;;21.80;49.50;;;;;;5033961;28;20372;-39
2021/05/16 06:32:54;;;;;;;0.82;0.43;;;21.80;49.50;;;;;;5033404;28;20382;-38
2021/05/16 06:35:20;;;;;;;1.83;0.50;;;21.80;49.50;;;;;;5033480;28;20045;-40
2021/05/16 06:37:46;;;;;;;1.50;0.30;;;21.80;49.50;;;;;;5034267;28;20026;-37
2021/05/16 06:40:13;;;;;;;1.35;0.43;;;21.80;49.60;;;;;;5033307;28;20029;-38
2021/05/16 06:42:40;;;;;;;0.75;0.60;;;21.80;49.50;;;;;;5032927;28;20030;-41
2021/05/16 06:45:07;;;;;;;0.55;0.40;;;21.80;49.50;;;;;;5030611;28;20474;-39
2021/05/16 06:47:32;;;;;;;0.45;0.30;;;21.80;49.40;;;;;;5032299;28;20053;-39
2021/05/16 06:50:01;;;;;;;0.63;0.35;;;21.90;49.50;;;;;;5030440;28;20491;-44
2021/05/16 06:52:26;;;;;;;0.55;0.30;;;21.90;49.50;;;;;;5032799;28;20029;-39
2021/05/16 06:54:52;;;;;;;0.60;0.25;;;21.80;49.50;;;;;;5031333;28;20021;-43
2021/05/16 06:57:18;;;;;;;0.90;0.30;;;21.80;49.40;;;;;;5031094;28;20051;-41
2021/05/16 06:59:50;;;;;;;1.30;0.60;;;21.80;49.40;;;;;;5032396;28;20057;-40
2021/05/16 07:02:16;;;;;;;1.23;0.40;;;21.80;49.40;;;;;;5028295;28;20042;-40
2021/05/16 07:04:43;;;;;;;0.55;0.40;;;21.80;49.60;;;;;;5032038;28;20406;-37
2021/05/16 07:07:10;;;;;;;0.40;0.30;;;21.80;49.50;;;;;;5028899;28;20469;-42
2021/05/16 07:09:41;;;;;;;1.05;0.30;;;21.90;49.50;;;;;;5032392;28;20041;-37
2021/05/16 07:12:10;;;;;;;0.80;0.30;;;21.80;49.40;;;;;;5031068;28;20116;-40
2021/05/16 07:14:36;;;;;;;0.30;0.25;;;21.80;49.40;;;;;;5032540;28;20029;-38
2021/05/16 07:17:02;;;;;;;1.02;0.43;;;21.80;49.40;;;;;;5027224;28;20032;-39
2021/05/16 07:19:28;;;;;;;0.98;0.30;;;21.80;49.40;;;;;;5032713;28;20061;-38
2021/05/16 07:21:54;;;;;;;0.55;0.40;;;21.80;49.50;;;;;;5031501;28;20102;-41
2021/05/16 07:24:19;;;;;;;3.10;0.40;;;21.80;49.60;;;;;;5031956;28;20155;-44
2021/05/16 07:26:45;;;;;;;1.77;0.43;;;21.80;49.70;;;;;;5032279;28;20055;-38
2021/05/16 07:29:11;;;;;;;3.03;0.85;;;21.90;49.90;;;;;;5031077;28;20033;-40
2021/05/16 07:31:36;;;;;;;0.85;0.40;;;22.00;50.60;;;;;;5028659;28;20044;-50
2021/05/16 07:34:02;;;;;;;10.98;0.90;;;22.00;50.00;;;;;;5032201;28;20024;-37
2021/05/16 07:36:28;;;;;;;4.43;0.40;;;22.00;50.10;;;;;;5037232;28;20048;-38
2021/05/16 07:38:54;;;;;;;3.70;0.52;;;22.00;50.30;;;;;;5032519;28;20505;-42
2021/05/16 07:41:19;;;;;;;3.25;0.60;;;22.00;50.30;;;;;;5032328;28;20425;-38
2021/05/16 07:43:45;;;;;;;2.22;0.60;;;22.00;50.30;;;;;;5032624;28;20034;-39
2021/05/16 07:46:11;;;;;;;3.20;0.40;;;22.00;50.50;;;;;;5030808;28;20164;-37
2021/05/16 07:48:36;;;;;;;1.40;0.40;;;22.00;50.50;;;;;;5031458;28;20427;-37
2021/05/16 07:51:02;;;;;;;2.10;0.68;;;22.00;50.50;;;;;;5031450;28;20113;-38
2021/05/16 07:53:31;;;;;;;2.75;1.40;;;22.00;50.50;;;;;;5032107;28;20433;-39
2021/05/16 07:55:56;;;;;;;2.85;1.13;;;22.10;50.50;;;;;;5029968;28;20025;-44
2021/05/16 07:58:25;;;;;;;2.47;0.50;;;22.00;50.40;;;;;;5032309;28;20044;-39
2021/05/16 08:00:51;;;;;;;2.38;0.50;;;22.10;50.50;;;;;;5031879;28;20091;-50
2021/05/16 08:03:16;;;;;;;0.98;0.45;;;22.10;50.50;;;;;;5042566;28;20479;-39
2021/05/16 08:05:42;;;;;;;2.72;0.77;;;22.10;50.50;;;;;;5033813;28;20025;-38
2021/05/16 08:08:08;;;;;;;1.90;0.50;;;22.10;50.50;;;;;;5030046;28;20033;-40
2021/05/16 08:10:33;;;;;;;1.70;0.32;;;22.10;50.50;;;;;;5025626;28;20108;-42
2021/05/16 08:12:59;;;;;;;3.30;0.50;;;22.10;50.50;;;;;;5031165;28;20068;-39
2021/05/16 08:15:25;;;;;;;1.02;0.57;;;22.10;50.50;;;;;;5030479;28;20025;-41
2021/05/16 08:17:52;;;;;;;2.97;0.60;;;22.10;50.50;;;;;;5031786;28;20108;-48
2021/05/16 08:20:18;;;;;;;3.53;0.50;;;22.10;50.60;;;;;;5031135;28;20745;-43
2021/05/16 08:22:44;;;;;;;3.53;0.57;;;22.20;50.80;;;;;;5030584;28;20030;-39
2021/05/16 08:25:11;;;;;;;1.67;0.40;;;22.10;51.60;;;;;;5029848;28;20022;-44
2021/05/16 08:27:38;;;;;;;1.38;0.50;;;22.20;51.20;;;;;;5034461;28;20025;-39
2021/05/16 08:30:05;;;;;;;3.75;0.70;;;22.20;51.00;;;;;;5030643;28;20127;-42
2021/05/16 08:32:32;;;;;;;0.88;0.40;;;22.20;51.00;;;;;;5039121;28;20037;-37
2021/05/16 08:34:57;;;;;;;3.35;0.40;;;22.20;51.40;;;;;;5029723;28;20039;-43
2021/05/16 08:37:23;;;;;;;1.52;0.80;;;22.20;51.40;;;;;;5062162;28;20120;-43
2021/05/16 08:39:49;;;;;;;2.05;0.70;;;22.20;51.40;;;;;;5032971;28;20041;-38
2021/05/16 08:42:18;;;;;;;1.10;0.45;;;22.30;51.30;;;;;;5030532;28;20443;-41
2021/05/16 08:44:44;;;;;;;2.78;0.50;;;22.30;51.30;;;;;;5031035;28;20029;-39
2021/05/16 08:47:10;;;;;;;3.35;0.57;;;22.30;51.50;;;;;;5039893;28;20650;-43
2021/05/16 08:49:36;;;;;;;2.47;0.60;;;22.30;51.60;;;;;;5021813;28;20037;-39
2021/05/16 08:52:02;;;;;;;4.05;0.63;;;22.30;51.50;;;;;;5030915;28;20030;-36
2021/05/16 08:54:28;;;;;;;3.00;0.50;;;22.30;51.60;;;;;;5030758;28;20029;-37
2021/05/16 08:56:55;;;;;;;2.78;0.63;;;22.30;51.70;;;;;;5030496;28;20026;-47
2021/05/16 08:59:22;;;;;;;2.33;1.23;;;22.30;51.80;;;;;;5028779;28;20520;-41
2021/05/16 09:01:49;;;;;;;1.45;0.52;;;22.30;51.80;;;;;;5030263;28;20037;-39
2021/05/16 09:04:38;;;;;;;4.55;0.65;;;22.30;52.00;;;;;;5025674;28;20029;-41
2021/05/16 09:07:04;;;;;;;7.82;0.60;;;22.30;51.90;;;;;;5026314;28;20048;-40
2021/05/16 09:09:50;;;;;;;7.65;1.02;;;22.30;51.90;;;;;;5030834;28;20061;-41
2021/05/16 09:12:15;;;;;;;6.57;1.00;;;22.30;52.10;;;;;;5030945;28;20471;-38
2021/05/16 09:14:48;;;;;;;8.02;1.00;;;22.40;52.40;;;;;;5030774;28;20040;-40
2021/05/16 09:17:31;;;;;;;6.75;1.50;;;22.50;52.70;;;;;;5030677;28;20045;-38
2021/05/16 09:20:08;;;;;;;6.65;1.83;;;22.50;52.70;;;;;;5028888;28;20124;-41
2021/05/16 09:22:45;;;;;;;7.65;0.80;;;22.50;52.70;;;;;;5025984;28;20025;-41
2021/05/16 09:25:17;;;;;;;3.97;0.93;;;22.40;53.00;;;;;;5030290;28;20069;-41
2021/05/16 09:27:46;;;;;;;7.50;0.98;;;22.50;53.10;;;;;;5030053;28;20029;-42
2021/05/16 09:30:18;;;;;;;5.32;0.90;;;22.50;52.90;;;;;;5028468;28;20033;-41
2021/05/16 09:32:49;;;;;;;7.75;1.00;;;22.50;52.90;;;;;;5037300;28;20064;-41
2021/05/16 09:35:17;;;;;;;6.15;1.02;;;22.50;52.80;;;;;;5045980;28;20026;-46
2021/05/16 09:37:58;;;;;;;6.95;1.00;;;22.50;52.90;;;;;;5033939;28;20063;-40
2021/05/16 09:40:26;;;;;;;12.63;1.13;;;22.50;53.80;;;;;;5034881;28;20052;-40
2021/05/16 09:43:36;;;;;;;9.40;1.23;;;22.50;53.10;;;;;;5034814;28;20033;-50
2021/05/16 09:46:05;;;;;;;9.25;1.55;;;22.50;53.10;;;;;;5032314;28;20033;-41
2021/05/16 09:48:39;;;;;;;8.90;1.25;;;22.40;52.70;;;;;;5033208;28;20029;-41
2021/05/16 09:51:22;;;;;;;18.13;1.45;;;22.40;52.90;;;;;;5033725;28;20394;-41
2021/05/16 09:53:58;;;;;;;9.40;1.50;;;22.40;52.60;;;;;;5036301;28;20038;-41
2021/05/16 09:56:29;;;;;;;15.90;1.73;;;22.40;51.60;;;;;;5034598;28;20103;-41
2021/05/16 09:58:57;;;;;;;11.07;1.85;;;22.40;51.60;;;;;;5031024;28;20076;-50
2021/05/16 10:01:25;;;;;;;12.27;1.98;;;22.40;51.80;;;;;;5035358;28;20036;-42
2021/05/16 10:03:51;;;;;;;7.75;1.60;;;22.50;52.00;;;;;;5039647;28;20494;-51
2021/05/16 10:06:19;;;;;;;10.23;1.67;;;22.50;52.20;;;;;;5032540;28;20033;-40
2021/05/16 10:08:47;;;;;;;11.00;2.40;;;22.50;52.40;;;;;;5032981;28;20378;-42
2021/05/16 10:11:18;;;;;;;16.35;2.17;;;22.50;52.40;;;;;;5033377;28;20644;-40
2021/05/16 10:13:58;;;;;;;13.55;2.53;;;22.60;53.40;;;;;;5026840;28;20043;-42
2021/05/16 10:16:24;;;;;;;18.65;3.33;;;22.60;52.80;;;;;;5033908;28;20021;-42
2021/05/16 10:18:52;;;;;;;40.58;4.50;;;22.70;53.10;;;;;;5034039;28;20079;-43
2021/05/16 10:21:23;;;;;;;28.88;3.72;;;22.70;53.10;;;;;;5032191;28;20036;-45
2021/05/16 10:24:10;;;;;;;27.63;3.00;;;22.70;53.50;;;;;;5033707;28;20041;-41
2021/05/16 10:26:40;;;;;;;16.90;2.65;;;22.70;53.50;;;;;;5032744;28;20053;-42
2021/05/16 10:29:10;;;;;;;15.90;3.20;;;22.70;53.40;;;;;;5035493;28;20064;-42
2021/05/16 10:31:49;;;;;;;19.35;2.85;;;22.80;53.40;;;;;;5036879;28;20025;-41
2021/05/16 10:34:27;;;;;;;6.20;1.30;;;22.70;54.00;;;;;;5033460;28;20144;-43
2021/05/16 10:37:00;;;;;;;15.02;2.00;;;22.50;50.20;;;;;;5042629;28;20079;-50
2021/05/16 10:39:38;;;;;;;12.73;1.58;;;22.20;49.10;;;;;;5029015;28;20022;-42
2021/05/16 10:42:50;;;;;;;;;;;;;;;;;;;;;
2021/05/16 10:45:38;;;;;;;8.20;1.00;;;22.10;42.70;;;;;;5029335;28;20063;-42
2021/05/16 10:48:29;;;;;;;13.77;1.65;;;22.00;45.00;;;;;;5024433;28;20029;-41
2021/05/16 10:50:59;;;;;;;7.60;1.30;;;21.80;40.90;;;;;;5031681;28;20040;-49
2021/05/16 10:53:44;;;;;;;4.70;0.90;;;21.50;40.60;;;;;;5027004;28;20029;-42
2021/05/16 10:56:40;;;;;;;3.42;0.73;;;21.50;39.10;;;;;;5030432;28;20033;-40
2021/05/16 10:59:13;;;;;;;9.82;2.00;;;21.40;39.70;;;;;;5038527;28;20128;-40
2021/05/16 11:01:43;;;;;;;14.48;2.67;;;21.20;40.40;;;;;;5034842;28;20033;-42
2021/05/16 11:07:06;;;;;;;5.13;1.80;;;21.30;40.50;;;;;;5031928;28;20491;-41
2021/05/16 11:09:34;;;;;;;2.55;1.25;;;21.00;41.90;;;;;;5033213;28;20116;-42
2021/05/16 11:12:01;;;;;;;4.35;1.00;;;20.90;39.40;;;;;;5038825;28;20033;-41
2021/05/16 11:14:33;;;;;;;4.22;0.90;;;21.00;39.50;;;;;;5034239;28;20021;-41
2021/05/16 11:17:17;;;;;;;8.32;1.10;;;21.20;39.60;;;;;;5033004;28;20115;-41
2021/05/16 11:20:12;;;;;;;3.33;0.98;;;21.20;40.10;;;;;;5032800;28;20048;-41
2021/05/16 11:23:08;;;;;;;2.78;0.80;;;21.40;42.80;;;;;;5032748;28;20033;-41
2021/05/16 11:26:26;;;;;;;3.45;0.80;;;21.50;39.40;;;;;;5027857;28;20486;-41
2021/05/16 11:29:13;;;;;;;6.15;0.93;;;21.50;39.80;;;;;;5031108;28;20041;-46
2021/05/16 11:32:05;;;;;;;4.30;1.00;;;21.60;40.00;;;;;;5033327;28;20037;-49
2021/05/16 11:34:39;;;;;;;2.27;1.07;;;21.50;37.70;;;;;;5027254;28;20524;-41
2021/05/16 11:37:34;;;;;;;6.78;0.85;;;21.40;37.40;;;;;;5030291;28;20278;-44
2021/05/16 11:40:21;;;;;;;3.08;0.90;;;21.50;38.50;;;;;;5026876;28;20067;-41
2021/05/16 11:43:13;;;;;;;1.45;0.60;;;21.50;37.90;;;;;;5029275;28;20447;-41
2021/05/16 11:45:45;;;;;;;2.55;0.70;;;21.50;39.80;;;;;;5029133;28;20033;-45
2021/05/16 11:48:38;;;;;;;2.65;0.73;;;21.40;37.80;;;;;;5028860;28;20471;-41
2021/05/16 11:51:16;;;;;;;2.92;0.60;;;21.50;37.60;;;;;;5031488;28;20478;-42
2021/05/16 11:53:55;;;;;;;1.95;0.80;;;21.50;37.40;;;;;;5030728;28;20027;-42
2021/05/16 11:56:49;;;;;;;1.92;0.90;;;21.60;37.40;;;;;;5031843;28;20036;-41
2021/05/16 11:59:15;;;;;;;4.15;1.00;;;21.50;43.10;;;;;;5030225;28;20073;-46
2021/05/16 12:01:42;;;;;;;4.03;0.77;;;21.60;42.10;;;;;;5038572;28;20036;-43
2021/05/16 12:04:15;;;;;;;3.60;0.68;;;21.50;38.80;;;;;;5040626;28;20891;-43
2021/05/16 12:07:00;;;;;;;2.60;0.82;;;21.50;37.30;;;;;;5031900;28;20068;-41
2021/05/16 12:09:32;;;;;;;2.47;0.70;;;21.60;37.60;;;;;;5031761;28;20040;-43
2021/05/16 12:12:05;;;;;;;1.47;1.03;;;21.70;37.80;;;;;;5030688;28;20552;-49
2021/05/16 12:14:55;;;;;;;2.13;0.70;;;21.60;36.90;;;;;;5032115;28;20296;-41
2021/05/16 12:17:31;;;;;;;3.30;0.75;;;21.50;36.70;;;;;;5031717;28;20083;-42
2021/05/16 12:20:16;;;;;;;2.22;0.60;;;21.40;37.30;;;;;;5031225;28;20068;-49
2021/05/16 12:22:50;;;;;;;3.10;1.10;;;21.50;38.20;;;;;;5028769;28;20146;-38
2021/05/16 12:25:30;;;;;;;2.08;1.05;;;21.50;38.00;;;;;;5031157;28;20029;-41
2021/05/16 12:28:08;;;;;;;3.90;0.80;;;21.50;38.00;;;;;;5023733;28;20437;-49
2021/05/16 12:30:51;;;;;;;3.90;0.80;;;21.60;38.90;;;;;;5030479;28;20041;-39
2021/05/16 12:33:17;;;;;;;3.38;0.98;;;21.60;38.70;;;;;;5029201;28;20060;-39
2021/05/16 12:35:48;;;;;;;2.97;1.05;;;21.60;38.20;;;;;;5031488;28;20033;-38
2021/05/16 12:38:22;;;;;;;4.15;0.70;;;21.60;38.50;;;;;;5030830;28;20029;-39
2021/05/16 12:41:16;;;;;;;4.00;0.70;;;21.70;39.70;;;;;;5028555;28;20029;-39
2021/05/16 12:44:02;;;;;;;3.97;0.73;;;21.80;40.00;;;;;;5029715;28;20037;-40
2021/05/16 12:46:49;;;;;;;4.40;0.85;;;21.80;40.10;;;;;;5030942;28;20072;-39
2021/05/16 12:49:40;;;;;;;4.78;1.00;;;21.90;40.30;;;;;;5030543;28;20160;-41
2021/05/16 12:52:09;;;;;;;2.95;0.98;;;22.00;40.60;;;;;;5022714;28;20045;-38
2021/05/16 12:54:37;;;;;;;2.65;0.70;;;22.00;40.80;;;;;;5029909;28;20036;-38
2021/05/16 12:57:21;;;;;;;1.35;0.70;;;22.00;40.90;;;;;;5030581;28;20434;-39
2021/05/16 12:59:50;;;;;;;4.15;0.65;;;22.00;41.20;;;;;;5030555;28;20065;-36
2021/05/16 13:02:44;;;;;;;2.58;0.63;;;22.00;41.30;;;;;;5029781;28;20665;-38